createdAt,value
2022-12-18T00:01:34.061Z,70.48
2022-12-18T00:04:00.630Z,70.29
2022-12-18T00:06:27.093Z,70.84
2022-12-18T00:08:54.785Z,70.25
2022-12-18T00:11:21.352Z,70.45
2022-12-18T00:13:47.762Z,70.30
2022-12-18T00:16:14.569Z,70.94
2022-12-18T00:18:44.256Z,71.00
2022-12-18T00:21:11.880Z,71.04
2022-12-18T00:23:38.653Z,71.18
2022-12-18T00:26:05.278Z,71.10
2022-12-18T00:28:31.675Z,71.32
2022-12-18T00:30:59.144Z,71.37
2022-12-18T00:33:28.077Z,70.96
2022-12-18T00:35:54.432Z,70.61
2022-12-18T00:38:20.831Z,70.87
2022-12-18T00:40:47.417Z,71.16
2022-12-18T00:43:13.857Z,70.54
2022-12-18T00:45:40.327Z,70.60
2022-12-18T00:48:07.227Z,70.77
2022-12-18T00:50:33.588Z,70.54
2022-12-18T00:52:59.937Z,70.53
2022-12-18T00:55:26.318Z,69.95
2022-12-18T00:57:55.866Z,70.45
2022-12-18T01:00:22.219Z,70.79
2022-12-18T01:02:51.216Z,69.96
2022-12-18T01:05:17.641Z,70.73
2022-12-18T01:07:44.017Z,71.08
2022-12-18T01:10:10.811Z,70.64
2022-12-18T01:12:39.617Z,70.95
2022-12-18T01:15:06.064Z,70.46
2022-12-18T01:17:32.459Z,70.30
2022-12-18T01:20:01.120Z,70.55
2022-12-18T01:22:27.765Z,70.09
2022-12-18T01:24:56.800Z,70.31
2022-12-18T01:27:23.562Z,70.17
2022-12-18T01:29:50.095Z,70.63
2022-12-18T01:32:16.479Z,70.26
2022-12-18T01:34:42.838Z,70.56
2022-12-18T01:37:09.368Z,70.64
2022-12-18T01:39:35.838Z,71.03
2022-12-18T01:42:04.052Z,71.42
2022-12-18T01:44:30.738Z,71.02
2022-12-18T01:46:57.237Z,70.95
2022-12-18T01:49:27.122Z,71.10
2022-12-18T01:51:54.824Z,70.62
2022-12-18T01:54:21.179Z,70.89
2022-12-18T01:56:47.638Z,70.95
2022-12-18T01:59:16.554Z,70.66
2022-12-18T02:01:43.136Z,70.41
2022-12-18T02:04:09.561Z,70.85
2022-12-18T02:06:36.034Z,70.28
2022-12-18T02:09:03.546Z,70.41
2022-12-18T02:11:29.939Z,71.08
2022-12-18T02:13:56.314Z,70.74
2022-12-18T02:16:22.837Z,70.48
2022-12-18T02:18:50.013Z,70.77
2022-12-18T02:21:17.031Z,70.53
2022-12-18T02:23:43.916Z,70.82
2022-12-18T02:26:10.310Z,70.48
2022-12-18T02:28:36.653Z,70.46
2022-12-18T02:31:04.462Z,70.13
2022-12-18T02:33:30.923Z,70.07
2022-12-18T02:35:57.263Z,70.08
2022-12-18T02:38:25.907Z,70.37
2022-12-18T02:40:52.539Z,70.30
2022-12-18T02:43:18.987Z,70.71
2022-12-18T02:45:47.922Z,70.59
2022-12-18T02:48:14.339Z,71.08
2022-12-18T02:50:40.837Z,71.08
2022-12-18T02:53:08.251Z,71.10
2022-12-18T02:55:35.720Z,71.28
2022-12-18T02:58:02.276Z,70.83
2022-12-18T03:00:31.011Z,70.63
2022-12-18T03:02:58.531Z,70.68
2022-12-18T03:05:25.352Z,70.00
2022-12-18T03:07:51.827Z,70.23
2022-12-18T03:10:18.245Z,70.56
2022-12-18T03:12:45.041Z,70.73
2022-12-18T03:15:17.262Z,70.84
2022-12-18T03:17:44.989Z,71.15
2022-12-18T03:20:12.207Z,70.61
2022-12-18T03:22:38.688Z,70.50
2022-12-18T03:25:05.077Z,70.87
2022-12-18T03:27:31.581Z,71.33
2022-12-18T03:29:58.070Z,72.05
2022-12-18T03:32:24.437Z,72.69
2022-12-18T03:34:51.168Z,72.65
2022-12-18T03:37:18.064Z,73.18
2022-12-18T03:39:44.769Z,73.38
2022-12-18T03:42:11.211Z,73.39
2022-12-18T03:44:37.834Z,73.42
2022-12-18T03:47:04.359Z,73.73
2022-12-18T03:49:32.895Z,73.01
2022-12-18T03:51:59.263Z,72.77
2022-12-18T03:54:25.929Z,72.56
2022-12-18T03:56:52.322Z,72.82
2022-12-18T03:59:20.121Z,71.98
2022-12-18T04:01:46.592Z,71.63
2022-12-18T04:04:13.115Z,71.42
2022-12-18T04:06:39.496Z,70.89
2022-12-18T04:09:05.864Z,70.44
2022-12-18T04:11:32.234Z,70.06
2022-12-18T04:13:58.608Z,69.29
2022-12-18T04:16:25.110Z,69.24
2022-12-18T04:18:51.481Z,69.29
2022-12-18T04:21:18.018Z,68.94
2022-12-18T04:23:44.572Z,68.60
2022-12-18T04:26:11.012Z,68.44
2022-12-18T04:28:37.463Z,68.89
2022-12-18T04:31:03.968Z,68.53
2022-12-18T04:33:33.221Z,67.82
2022-12-18T04:35:59.591Z,68.94
2022-12-18T04:38:26.017Z,70.14
2022-12-18T04:40:52.363Z,71.55
2022-12-18T04:43:18.912Z,72.29
2022-12-18T04:45:48.257Z,72.92
2022-12-18T04:48:14.821Z,73.89
2022-12-18T04:50:43.528Z,72.88
2022-12-18T04:53:11.948Z,72.27
2022-12-18T04:55:40.490Z,72.28
2022-12-18T04:58:07.089Z,72.53
2022-12-18T05:00:37.552Z,72.61
2022-12-18T05:03:04.295Z,73.45
2022-12-18T05:05:30.731Z,72.67
2022-12-18T05:07:57.559Z,73.47
2022-12-18T05:10:24.273Z,72.46
2022-12-18T05:12:50.893Z,72.15
2022-12-18T05:15:17.324Z,72.30
2022-12-18T05:17:43.918Z,72.96
2022-12-18T05:20:10.310Z,73.53
2022-12-18T05:22:36.719Z,73.07
2022-12-18T05:25:03.194Z,73.32
2022-12-18T05:27:34.672Z,73.46
2022-12-18T05:30:01.027Z,73.80
2022-12-18T05:32:27.494Z,74.49
2022-12-18T05:34:54.194Z,74.43
2022-12-18T05:37:20.959Z,74.72
2022-12-18T05:39:48.175Z,74.48
2022-12-18T05:42:15.572Z,75.03
2022-12-18T05:44:42.197Z,74.79
2022-12-18T05:47:09.096Z,74.77
2022-12-18T05:49:38.742Z,74.36
2022-12-18T05:52:05.096Z,74.22
2022-12-18T05:54:31.479Z,74.68
2022-12-18T05:57:02.365Z,74.93
2022-12-18T05:59:29.080Z,74.51
2022-12-18T06:01:55.800Z,74.25
2022-12-18T06:04:22.285Z,73.50
2022-12-18T06:06:48.687Z,72.59
2022-12-18T06:09:15.126Z,72.92
2022-12-18T06:11:44.001Z,72.32
2022-12-18T06:14:10.913Z,73.39
2022-12-18T06:16:37.371Z,73.79
2022-12-18T06:19:03.783Z,73.18
2022-12-18T06:21:30.428Z,73.20
2022-12-18T06:23:57.766Z,72.97
2022-12-18T06:26:28.272Z,74.21
2022-12-18T06:28:55.069Z,73.97
2022-12-18T06:31:21.735Z,74.75
2022-12-18T06:33:48.336Z,74.60
2022-12-18T06:36:17.421Z,74.71
2022-12-18T06:38:46.278Z,74.91
2022-12-18T06:41:12.685Z,75.13
2022-12-18T06:43:39.392Z,74.98
2022-12-18T06:46:06.372Z,75.28
2022-12-18T06:48:32.781Z,74.76
2022-12-18T06:50:59.132Z,74.80
2022-12-18T06:53:25.957Z,75.20
2022-12-18T06:55:52.295Z,75.02
2022-12-18T06:58:19.571Z,74.37
2022-12-18T07:00:45.992Z,73.73
2022-12-18T07:03:12.714Z,73.61
2022-12-18T07:05:39.133Z,74.27
2022-12-18T07:08:07.746Z,73.98
2022-12-18T07:10:34.472Z,73.66
2022-12-18T07:13:01.036Z,72.93
2022-12-18T07:15:27.626Z,72.76
2022-12-18T07:17:53.957Z,72.71
2022-12-18T07:20:20.297Z,72.76
2022-12-18T07:22:51.983Z,72.84
2022-12-18T07:25:21.502Z,73.15
2022-12-18T07:27:47.885Z,73.43
2022-12-18T07:30:14.264Z,73.09
2022-12-18T07:32:43.002Z,73.15
2022-12-18T07:35:10.379Z,73.16
2022-12-18T07:37:37.748Z,73.18
2022-12-18T07:40:04.273Z,73.22
2022-12-18T07:42:30.682Z,72.78
2022-12-18T07:44:57.192Z,73.07
2022-12-18T07:47:24.669Z,72.75
2022-12-18T07:49:53.544Z,72.96
2022-12-18T07:52:25.577Z,72.93
2022-12-18T07:54:52.414Z,72.62
2022-12-18T07:57:41.853Z,72.45
2022-12-18T08:00:05.132Z,71.91
2022-12-18T08:02:31.865Z,72.17
2022-12-18T08:05:01.633Z,73.33
2022-12-18T08:07:29.833Z,75.49
2022-12-18T08:09:56.568Z,76.71
2022-12-18T08:12:23.468Z,77.03
2022-12-18T08:14:53.423Z,77.24
2022-12-18T08:17:20.111Z,78.02
2022-12-18T08:19:46.505Z,78.40
2022-12-18T08:22:12.985Z,78.01
2022-12-18T08:24:39.339Z,77.54
2022-12-18T08:27:28.476Z,76.96
2022-12-18T08:29:53.580Z,76.55
2022-12-18T08:32:21.244Z,76.89
2022-12-18T08:34:47.854Z,75.45
2022-12-18T08:37:22.797Z,74.73
2022-12-18T08:39:49.416Z,73.56
2022-12-18T08:42:16.045Z,72.35
2022-12-18T08:44:43.981Z,71.43
2022-12-18T08:47:10.729Z,70.89
2022-12-18T08:49:37.309Z,70.58
2022-12-18T08:52:03.873Z,69.47
2022-12-18T08:54:32.806Z,70.21
2022-12-18T08:56:59.264Z,69.23
2022-12-18T08:59:25.869Z,70.01
2022-12-18T09:02:00.167Z,69.84
2022-12-18T09:04:27.992Z,69.23
2022-12-18T09:06:56.756Z,69.38
2022-12-18T09:09:23.129Z,68.90
2022-12-18T09:11:50.036Z,69.12
2022-12-18T09:14:18.790Z,68.77
2022-12-18T09:16:45.235Z,68.35
2022-12-18T09:19:11.650Z,68.19
2022-12-18T09:21:38.021Z,68.80
2022-12-18T09:24:08.632Z,68.70
2022-12-18T09:26:35.750Z,68.61
2022-12-18T09:29:02.160Z,68.62
2022-12-18T09:31:28.807Z,67.38
2022-12-18T09:33:55.420Z,67.84
2022-12-18T09:36:21.891Z,67.31
2022-12-18T09:38:48.384Z,67.93
2022-12-18T09:41:15.844Z,69.05
2022-12-18T09:43:42.409Z,68.38
2022-12-18T09:46:08.943Z,67.41
2022-12-18T09:48:35.908Z,67.37
2022-12-18T09:51:06.599Z,67.42
2022-12-18T09:53:32.948Z,67.01
2022-12-18T09:56:01.530Z,66.61
2022-12-18T09:58:30.028Z,66.06
2022-12-18T10:00:56.937Z,66.29
2022-12-18T10:03:23.434Z,67.21
2022-12-18T10:05:52.336Z,68.00
2022-12-18T10:08:18.683Z,67.87
2022-12-18T10:10:45.058Z,68.27
2022-12-18T10:13:13.669Z,68.60
2022-12-18T10:15:40.248Z,69.07
2022-12-18T10:18:06.614Z,67.51
2022-12-18T10:20:32.997Z,67.95
2022-12-18T10:23:00.379Z,66.50
2022-12-18T10:25:28.182Z,65.29
2022-12-18T10:27:54.787Z,64.23
2022-12-18T10:30:21.135Z,64.24
2022-12-18T10:32:47.515Z,65.60
2022-12-18T10:35:14.180Z,66.49
2022-12-18T10:37:40.870Z,66.68
2022-12-18T10:40:08.055Z,65.81
2022-12-18T10:42:36.557Z,67.01
2022-12-18T10:45:04.131Z,65.99
2022-12-18T10:47:30.521Z,66.69
2022-12-18T10:49:56.901Z,66.65
2022-12-18T10:52:24.410Z,65.87
2022-12-18T10:54:50.823Z,65.01
2022-12-18T10:57:17.267Z,65.78
2022-12-18T10:59:43.627Z,65.82
2022-12-18T11:02:11.211Z,65.15
2022-12-18T11:04:37.628Z,65.37
2022-12-18T11:07:05.063Z,65.06
2022-12-18T11:09:31.688Z,64.15
2022-12-18T11:12:00.498Z,64.49
2022-12-18T11:14:27.296Z,65.89
2022-12-18T11:19:40.406Z,66.49
2022-12-18T11:22:06.855Z,67.83
2022-12-18T11:24:33.198Z,68.69
2022-12-18T11:27:00.207Z,68.44
2022-12-18T11:29:26.602Z,67.95
2022-12-18T11:31:53.135Z,68.21
2022-12-18T11:34:28.995Z,67.77
2022-12-18T11:36:55.940Z,66.48
2022-12-18T11:39:22.521Z,66.32
2022-12-18T11:41:49.724Z,65.72
2022-12-18T11:44:18.996Z,65.41
2022-12-18T11:46:46.390Z,65.72
2022-12-18T11:49:13.153Z,65.26
2022-12-18T11:51:39.543Z,65.40
2022-12-18T11:54:05.882Z,65.65
2022-12-18T11:56:32.286Z,65.25
2022-12-18T11:58:59.045Z,64.60
2022-12-18T12:01:25.619Z,64.91
2022-12-18T12:03:52.046Z,63.28
2022-12-18T12:06:18.512Z,63.07
2022-12-18T12:08:45.149Z,64.13
2022-12-18T12:11:11.495Z,64.01
2022-12-18T12:13:38.107Z,64.49
2022-12-18T12:16:04.796Z,64.87
2022-12-18T12:18:31.266Z,65.04
2022-12-18T12:20:57.832Z,64.91
2022-12-18T12:23:27.636Z,65.35
2022-12-18T12:25:54.700Z,64.50
2022-12-18T12:28:22.121Z,65.36
2022-12-18T12:30:48.588Z,65.02
2022-12-18T12:33:15.326Z,64.88
2022-12-18T12:35:41.987Z,63.94
2022-12-18T12:38:08.332Z,62.90
2022-12-18T12:40:52.616Z,64.02
2022-12-18T12:43:21.143Z,62.48
2022-12-18T12:45:50.900Z,63.53
2022-12-18T12:48:25.026Z,63.92
2022-12-18T12:50:52.511Z,62.54
2022-12-18T12:53:19.040Z,63.51
2022-12-18T12:55:45.910Z,65.13
2022-12-18T12:58:12.913Z,64.60
2022-12-18T13:00:39.265Z,64.29
2022-12-18T13:03:06.622Z,64.18
2022-12-18T13:05:34.279Z,62.79
2022-12-18T13:08:03.251Z,63.87
2022-12-18T13:10:30.196Z,63.61
2022-12-18T13:12:56.887Z,62.84
2022-12-18T13:15:24.320Z,63.47
2022-12-18T13:17:52.219Z,64.56
2022-12-18T13:20:19.122Z,64.14
2022-12-18T13:22:45.459Z,63.79
2022-12-18T13:25:11.933Z,63.99
2022-12-18T13:27:38.587Z,64.30
2022-12-18T13:30:06.343Z,64.27
2022-12-18T13:32:33.464Z,64.00
2022-12-18T13:35:01.136Z,63.69
2022-12-18T13:37:27.648Z,63.57
2022-12-18T13:39:54.143Z,63.19
2022-12-18T13:42:20.719Z,63.80
2022-12-18T13:44:47.097Z,63.31
2022-12-18T13:47:13.579Z,63.00
2022-12-18T13:49:40.971Z,63.49
2022-12-18T13:52:07.316Z,63.17
2022-12-18T13:54:33.748Z,62.78
2022-12-18T13:57:00.126Z,62.93
2022-12-18T13:59:26.568Z,62.93
2022-12-18T14:01:53.923Z,62.71
2022-12-18T14:04:20.522Z,62.08
2022-12-18T14:06:46.945Z,62.48
2022-12-18T14:09:20.313Z,62.17
2022-12-18T14:11:47.998Z,62.51
2022-12-18T14:14:14.382Z,63.16
2022-12-18T14:16:40.950Z,62.55
2022-12-18T14:19:15.150Z,63.16
2022-12-18T14:21:42.206Z,62.83
2022-12-18T14:24:08.647Z,63.25
2022-12-18T14:26:36.036Z,65.55
2022-12-18T14:29:02.428Z,66.19
2022-12-18T14:31:29.773Z,66.80
2022-12-18T14:33:56.255Z,66.82
2022-12-18T14:36:22.713Z,65.77
2022-12-18T14:38:49.179Z,65.96
2022-12-18T14:41:15.618Z,66.60
2022-12-18T14:43:43.414Z,66.75
2022-12-18T14:46:10.210Z,67.34
2022-12-18T14:48:37.148Z,66.93
2022-12-18T14:51:03.532Z,67.16
2022-12-18T14:53:30.493Z,66.88
2022-12-18T14:55:57.313Z,66.85
2022-12-18T14:58:24.036Z,66.60
2022-12-18T15:00:50.774Z,66.78
2022-12-18T15:03:17.178Z,67.04
2022-12-18T15:05:45.247Z,67.93
2022-12-18T15:08:13.911Z,67.66
2022-12-18T15:10:40.500Z,68.04
2022-12-18T15:13:06.959Z,68.23
2022-12-18T15:15:33.604Z,68.65
2022-12-18T15:17:59.985Z,68.90
2022-12-18T15:20:28.423Z,69.15
2022-12-18T15:22:54.800Z,69.42
2022-12-18T15:25:21.173Z,69.63
2022-12-18T15:27:47.486Z,69.65
2022-12-18T15:30:16.103Z,69.89
2022-12-18T15:32:42.501Z,70.36
2022-12-18T15:35:08.843Z,70.44
2022-12-18T15:37:35.285Z,70.35
2022-12-18T15:40:01.954Z,70.63
2022-12-18T15:42:28.497Z,71.03
2022-12-18T15:44:57.950Z,70.98
2022-12-18T15:47:24.517Z,71.30
2022-12-18T15:49:51.078Z,71.20
2022-12-18T15:52:19.633Z,71.52
2022-12-18T15:54:46.141Z,71.74
2022-12-18T15:57:14.994Z,71.61
2022-12-18T15:59:41.596Z,72.10
2022-12-18T16:02:08.389Z,71.84
2022-12-18T16:04:35.245Z,71.61
2022-12-18T16:07:19.326Z,71.47
2022-12-18T16:09:49.304Z,71.34
2022-12-18T16:12:15.750Z,71.14
2022-12-18T16:14:43.102Z,71.44
2022-12-18T16:17:09.630Z,71.80
2022-12-18T16:19:36.000Z,71.35
2022-12-18T16:22:02.472Z,71.50
2022-12-18T16:24:28.950Z,72.09
2022-12-18T16:26:55.462Z,72.03
2022-12-18T16:29:21.999Z,72.15
2022-12-18T16:31:50.569Z,72.46
2022-12-18T16:34:19.650Z,72.70
2022-12-18T16:36:48.263Z,72.98
2022-12-18T16:39:14.603Z,72.93
2022-12-18T16:41:42.720Z,73.11
2022-12-18T16:44:09.117Z,72.88
2022-12-18T16:46:35.576Z,72.73
2022-12-18T16:49:01.983Z,72.97
2022-12-18T16:51:28.350Z,72.65
2022-12-18T16:53:54.814Z,72.88
2022-12-18T16:56:21.314Z,72.86
2022-12-18T16:58:49.702Z,72.71
2022-12-18T17:01:16.128Z,72.60
2022-12-18T17:03:42.907Z,72.80
2022-12-18T17:06:11.043Z,73.19
2022-12-18T17:08:40.437Z,73.13
2022-12-18T17:11:07.001Z,73.08
2022-12-18T17:13:33.490Z,73.48
2022-12-18T17:16:00.009Z,73.68
2022-12-18T17:18:26.415Z,73.87
2022-12-18T17:20:52.849Z,73.79
2022-12-18T17:23:19.338Z,73.71
2022-12-18T17:25:45.922Z,73.89
2022-12-18T17:28:13.045Z,73.33
2022-12-18T17:30:39.429Z,73.57
2022-12-18T17:33:08.939Z,73.22
2022-12-18T17:35:35.317Z,73.55
2022-12-18T17:38:01.661Z,73.21
2022-12-18T17:40:28.227Z,73.35
2022-12-18T17:42:54.623Z,73.56
2022-12-18T17:45:21.081Z,72.99
2022-12-18T17:47:59.722Z,72.75
2022-12-18T17:50:26.549Z,72.75
2022-12-18T17:52:53.365Z,72.22
2022-12-18T17:55:19.776Z,72.31
2022-12-18T17:57:48.184Z,72.74
2022-12-18T18:00:14.737Z,73.01
2022-12-18T18:02:41.407Z,73.32
2022-12-18T18:05:10.569Z,73.38
2022-12-18T18:07:38.500Z,73.57
2022-12-18T18:10:05.135Z,73.55
2022-12-18T18:12:32.116Z,73.96
2022-12-18T18:14:58.857Z,73.53
2022-12-18T18:17:25.589Z,74.06
2022-12-18T18:19:51.975Z,74.15
2022-12-18T18:22:30.997Z,74.08
2022-12-18T18:25:04.996Z,74.47
2022-12-18T18:27:38.264Z,74.66
2022-12-18T18:30:05.154Z,74.43
2022-12-18T18:32:32.322Z,74.28
2022-12-18T18:34:58.849Z,74.08
2022-12-18T18:37:26.405Z,74.36
2022-12-18T18:39:52.865Z,74.46
2022-12-18T18:42:19.310Z,74.63
2022-12-18T18:44:48.917Z,74.64
2022-12-18T18:47:15.814Z,75.26
2022-12-18T18:49:42.273Z,75.00
2022-12-18T18:52:09.835Z,75.22
2022-12-18T18:54:36.349Z,75.17
2022-12-18T18:57:20.014Z,75.04
2022-12-18T18:59:47.630Z,75.01
2022-12-18T19:02:14.569Z,75.35
2022-12-18T19:04:45.672Z,74.74
2022-12-18T19:07:12.878Z,74.79
2022-12-18T19:09:41.974Z,74.92
2022-12-18T19:12:08.311Z,74.98
2022-12-18T19:14:34.943Z,74.99
2022-12-18T19:17:01.427Z,75.18
2022-12-18T19:19:30.064Z,75.56
2022-12-18T19:21:56.631Z,75.74
2022-12-18T19:24:23.195Z,75.48
2022-12-18T19:26:49.823Z,75.54
2022-12-18T19:29:16.192Z,75.94
2022-12-18T19:31:42.767Z,75.55
2022-12-18T19:34:09.330Z,75.71
2022-12-18T19:36:35.903Z,76.20
2022-12-18T19:39:04.793Z,75.94
2022-12-18T19:41:32.837Z,75.68
2022-12-18T19:44:02.270Z,75.22
2022-12-18T19:46:35.829Z,75.10
2022-12-18T19:49:02.340Z,74.81
2022-12-18T19:51:30.109Z,75.00
2022-12-18T19:53:58.836Z,74.65
2022-12-18T19:56:26.830Z,74.75
2022-12-18T19:58:53.294Z,74.71
2022-12-18T20:01:20.228Z,74.60
2022-12-18T20:03:51.871Z,74.64
2022-12-18T20:06:19.268Z,75.00
2022-12-18T20:08:46.112Z,74.77
2022-12-18T20:11:16.357Z,74.44
2022-12-18T20:13:43.024Z,74.73
2022-12-18T20:16:11.524Z,74.97
2022-12-18T20:18:37.956Z,75.16
2022-12-18T20:21:06.264Z,75.63
2022-12-18T20:23:34.337Z,75.95
2022-12-18T20:26:03.630Z,75.61
2022-12-18T20:28:32.652Z,75.84
2022-12-18T20:30:59.326Z,75.70
2022-12-18T20:33:25.718Z,75.92
2022-12-18T20:35:52.085Z,75.08
2022-12-18T20:38:19.373Z,76.00
2022-12-18T20:40:50.115Z,75.58
2022-12-18T20:43:17.454Z,75.88
2022-12-18T20:45:44.082Z,75.63
2022-12-18T20:48:12.391Z,76.04
2022-12-18T20:50:38.738Z,75.57
2022-12-18T20:53:05.638Z,75.75
2022-12-18T20:55:32.374Z,75.66
2022-12-18T20:57:58.734Z,75.68
2022-12-18T21:00:25.197Z,76.25
2022-12-18T21:02:53.290Z,76.56
2022-12-18T21:05:19.793Z,76.62
2022-12-18T21:07:46.510Z,76.40
2022-12-18T21:10:12.992Z,76.45
2022-12-18T21:12:42.711Z,76.13
2022-12-18T21:15:16.153Z,75.99
2022-12-18T21:17:45.472Z,75.98
2022-12-18T21:20:13.273Z,76.22
2022-12-18T21:22:44.103Z,75.96
2022-12-18T21:25:10.439Z,75.93
2022-12-18T21:27:39.303Z,76.12
2022-12-18T21:30:05.651Z,75.70
2022-12-18T21:32:33.562Z,75.21
2022-12-18T21:35:00.367Z,75.13
2022-12-18T21:37:26.962Z,75.59
2022-12-18T21:39:53.741Z,75.54
2022-12-18T21:42:20.411Z,75.86
2022-12-18T21:44:47.097Z,75.91
2022-12-18T21:47:22.899Z,75.84
2022-12-18T21:49:49.793Z,76.01
2022-12-18T21:52:16.599Z,75.94
2022-12-18T21:54:42.963Z,75.73
2022-12-18T21:57:10.395Z,75.86
2022-12-18T21:59:37.015Z,75.74
2022-12-18T22:02:03.631Z,75.36
2022-12-18T22:04:32.452Z,75.81
2022-12-18T22:07:01.157Z,75.97
2022-12-18T22:09:27.978Z,76.02
2022-12-18T22:11:54.427Z,75.83
2022-12-18T22:14:21.828Z,75.71
2022-12-18T22:16:51.357Z,75.94
2022-12-18T22:19:18.414Z,75.95
2022-12-18T22:21:45.539Z,75.66
2022-12-18T22:24:13.065Z,75.92
2022-12-18T22:26:40.479Z,76.04
2022-12-18T22:29:07.003Z,76.10
2022-12-18T22:31:33.512Z,76.14
2022-12-18T22:34:00.109Z,76.23
2022-12-18T22:36:26.705Z,76.08
2022-12-18T22:38:53.100Z,76.35
2022-12-18T22:41:20.191Z,76.73
2022-12-18T22:43:46.751Z,76.90
2022-12-18T22:46:15.573Z,76.60
2022-12-18T22:48:42.148Z,76.68
2022-12-18T22:51:08.943Z,76.18
2022-12-18T22:53:35.857Z,75.90
2022-12-18T22:56:02.327Z,75.90
2022-12-18T22:58:28.900Z,76.21
2022-12-18T23:00:55.275Z,76.17
2022-12-18T23:03:21.746Z,76.67
2022-12-18T23:05:49.115Z,76.48
2022-12-18T23:08:16.913Z,76.77
2022-12-18T23:10:44.087Z,76.86
2022-12-18T23:13:10.483Z,76.88
2022-12-18T23:15:36.902Z,76.97
2022-12-18T23:18:03.272Z,76.48
2022-12-18T23:20:30.743Z,76.52
2022-12-18T23:22:57.224Z,76.55
2022-12-18T23:25:23.786Z,76.63
2022-12-18T23:27:50.208Z,76.23
2022-12-18T23:30:19.211Z,76.20
2022-12-18T23:32:46.807Z,75.96
2022-12-18T23:35:15.578Z,76.03
2022-12-18T23:37:58.849Z,76.18
2022-12-18T23:40:26.259Z,76.02
2022-12-18T23:42:52.714Z,75.54
2022-12-18T23:45:19.073Z,75.88
2022-12-18T23:47:45.441Z,75.75
2022-12-18T23:50:14.486Z,75.98
2022-12-18T23:52:41.215Z,75.91
2022-12-18T23:55:07.969Z,76.33
2022-12-18T23:57:34.439Z,76.09
